Time;durP1;ratioP1;P1;durP2;ratioP2;P2;SDS_P1;SDS_P2;PMS_P1;PMS_P2;Temp;Humidity;BMP_temperature;BMP_pressure;BME280_temperature;BME280_humidity;BME280_pressure;Samples;Min_cycle;Max_cycle;Signal;HPM_P1;HPM_P2
2021/12/21 00:00:01;;;;;;;0.20;0.20;;;;;;;19.71;41.29;102323.84;5148076;27;20039;-38
2021/12/21 00:02:26;;;;;;;0.20;0.20;;;;;;;19.70;41.36;102314.72;5120320;27;20042;-37
2021/12/21 00:04:52;;;;;;;0.20;0.20;;;;;;;19.71;41.41;102323.84;5139692;27;20047;-38
2021/12/21 00:07:18;;;;;;;0.20;0.20;;;;;;;19.71;41.36;102318.31;5146986;27;20039;-38
2021/12/21 00:09:43;;;;;;;0.20;0.20;;;;;;;19.69;41.46;102309.44;5125708;27;20047;-38
2021/12/21 00:12:12;;;;;;;0.20;0.20;;;;;;;19.70;41.42;102311.13;5141213;27;20070;-37
2021/12/21 00:14:55;;;;;;;0.20;0.20;;;;;;;19.68;41.20;102305.84;5124969;27;20043;-38
2021/12/21 00:17:58;;;;;;;0.20;0.20;;;;;;;19.69;41.44;102306.66;5140756;27;20051;-38
2021/12/21 00:20:24;;;;;;;0.20;0.20;;;;;;;19.69;41.04;102301.13;5118732;27;20059;-39
2021/12/21 00:25:21;;;;;;;0.20;0.20;;;;;;;19.68;41.30;102302.25;5146112;27;20039;-38
2021/12/21 00:27:48;;;;;;;0.20;0.20;;;;;;;19.69;41.39;102303.91;5124968;27;20057;-38
2021/12/21 00:30:14;;;;;;;0.20;0.20;;;;;;;19.69;41.12;102301.13;5121201;27;20043;-38
2021/12/21 00:32:40;;;;;;;0.20;0.20;;;;;;;19.69;41.30;102301.13;5121063;27;20525;-38
2021/12/21 00:35:06;;;;;;;0.20;0.20;;;;;;;19.69;41.38;102295.63;5142827;27;20043;-39
2021/12/21 00:37:32;;;;;;;0.20;0.20;;;;;;;19.67;41.31;102301.41;5122215;27;20140;-38
2021/12/21 00:39:58;;;;;;;0.20;0.20;;;;;;;19.68;41.25;102292.00;5142872;27;20627;-38
2021/12/21 00:42:24;;;;;;;0.20;0.20;;;;;;;19.68;41.25;102294.78;5134836;27;20046;-37
2021/12/21 00:44:49;;;;;;;0.20;0.20;;;;;;;19.69;41.46;102302.00;5118820;27;20072;-36
2021/12/21 00:47:16;;;;;;;0.20;0.20;;;;;;;19.68;41.39;102293.94;5136072;27;20087;-37
2021/12/21 00:49:46;;;;;;;0.20;0.20;;;;;;;19.67;41.33;102287.59;5147311;27;20039;-39
2021/12/21 00:52:12;;;;;;;0.20;0.20;;;;;;;19.67;41.25;102292.28;5120575;27;20043;-38
2021/12/21 00:54:38;;;;;;;0.20;0.20;;;;;;;19.67;41.38;102289.50;5134838;27;20383;-39
2021/12/21 00:57:04;;;;;;;0.20;0.20;;;;;;;19.65;41.48;102289.78;5134801;27;20043;-38
2021/12/21 00:59:31;;;;;;;0.20;0.20;;;;;;;19.66;41.30;102291.44;5138567;27;20041;-38
2021/12/21 01:01:57;;;;;;;0.10;0.10;;;;;;;19.65;41.44;102286.19;5140493;27;20410;-38
2021/12/21 01:04:29;;;;;;;0.20;0.20;;;;;;;19.66;41.22;102287.84;5134822;27;20070;-39
2021/12/21 01:07:03;;;;;;;0.20;0.20;;;;;;;19.66;41.46;102280.38;5120471;27;20046;-38
2021/12/21 01:10:01;;;;;;;0.20;0.20;;;;;;;19.65;41.35;102283.41;5142996;27;20056;-39
2021/12/21 01:12:25;;;;;;;0.20;0.20;;;;;;;19.66;41.54;102287.84;5126357;27;20058;-38
2021/12/21 01:17:29;;;;;;;0.20;0.20;;;;;;;19.65;41.17;102278.72;5171139;27;20206;-37
2021/12/21 01:20:04;;;;;;;;;;;;;;;19.65;41.27;102277.88;5160809;27;20046;-36
2021/12/21 01:22:53;;;;;;;0.20;0.20;;;;;;;19.64;41.35;102277.03;5148940;27;19925;-37
2021/12/21 01:25:41;;;;;;;0.20;0.20;;;;;;;19.65;41.30;102277.88;5142491;27;20042;-37
2021/12/21 01:28:11;;;;;;;0.20;0.20;;;;;;;19.63;41.21;102278.13;5124510;27;20087;-38
2021/12/21 01:30:49;;;;;;;0.20;0.20;;;;;;;19.64;41.59;102278.94;5149773;27;20039;-37
2021/12/21 01:33:41;;;;;;;0.20;0.20;;;;;;;19.64;41.40;102278.94;5151899;27;20057;-37
2021/12/21 01:36:03;;;;;;;0.20;0.20;;;;;;;19.64;41.33;102284.47;5146367;27;20434;-37
2021/12/21 01:38:38;;;;;;;0.20;0.20;;;;;;;19.64;41.34;102277.03;5150502;27;20047;-36
2021/12/21 01:41:22;;;;;;;0.20;0.20;;;;;;;19.64;41.41;102281.72;5147600;27;20039;-37
2021/12/21 01:44:01;;;;;;;0.20;0.20;;;;;;;19.63;41.16;102275.34;5158123;27;20039;-36
2021/12/21 01:49:49;;;;;;;0.20;0.20;;;;;;;19.63;41.26;102280.06;5132986;27;20079;-38
2021/12/21 01:51:58;;;;;;;0.20;0.20;;;;;;;19.63;41.53;102274.53;5133844;27;20051;-37
2021/12/21 01:54:24;;;;;;;0.20;0.20;;;;;;;19.63;41.47;102269.81;5152032;27;20050;-36
2021/12/21 01:56:50;;;;;;;0.20;0.20;;;;;;;19.63;41.33;102274.53;5148989;27;20035;-37
2021/12/21 01:59:15;;;;;;;0.20;0.20;;;;;;;19.62;41.45;102273.69;5148406;27;20054;-37
2021/12/21 02:01:41;;;;;;;0.20;0.20;;;;;;;19.62;41.62;102268.16;5148830;27;20074;-36
2021/12/21 02:04:08;;;;;;;0.20;0.20;;;;;;;19.61;41.27;102266.50;5157586;27;20053;-38
2021/12/21 02:06:34;;;;;;;0.20;0.20;;;;;;;19.62;41.16;102270.94;5148830;27;20092;-37
2021/12/21 02:09:00;;;;;;;0.20;0.20;;;;;;;19.62;41.18;102268.16;5149904;27;20125;-36
2021/12/21 02:11:26;;;;;;;0.20;0.20;;;;;;;19.62;41.51;102264.56;5149405;27;20043;-37
2021/12/21 02:13:52;;;;;;;0.20;0.20;;;;;;;19.62;41.16;102267.31;5150746;27;20042;-38
2021/12/21 02:16:26;;;;;;;0.20;0.20;;;;;;;19.63;41.15;102260.69;5149797;27;20355;-37
2021/12/21 02:19:01;;;;;;;0.20;0.20;;;;;;;19.62;41.19;102261.81;5148147;27;20377;-36
2021/12/21 02:21:41;;;;;;;0.20;0.20;;;;;;;19.61;41.30;102268.44;5145223;27;20133;-37
2021/12/21 02:24:13;;;;;;;0.20;0.20;;;;;;;19.61;41.32;102257.38;5143659;27;20039;-37
2021/12/21 02:26:47;;;;;;;0.20;0.20;;;;;;;19.60;41.24;102248.19;5155011;27;20051;-37
2021/12/21 02:29:17;;;;;;;0.20;0.20;;;;;;;19.60;41.08;102259.25;5134194;27;20051;-37
2021/12/21 02:31:47;;;;;;;0.20;0.20;;;;;;;19.62;41.15;102259.03;5136732;27;20058;-36
2021/12/21 02:34:14;;;;;;;0.20;0.20;;;;;;;19.61;41.35;102254.59;5130969;27;20047;-37
2021/12/21 02:36:44;;;;;;;0.20;0.20;;;;;;;19.60;41.26;102250.13;5134331;27;20105;-35
2021/12/21 02:39:11;;;;;;;0.20;0.20;;;;;;;19.61;41.26;102251.84;5132991;27;20045;-37
2021/12/21 02:41:37;;;;;;;0.20;0.20;;;;;;;19.61;41.04;102251.84;5139145;27;20074;-36
2021/12/21 02:44:03;;;;;;;0.17;0.17;;;;;;;19.59;41.53;102251.22;5103407;28;20040;-36
2021/12/21 02:46:29;;;;;;;0.20;0.20;;;;;;;19.61;41.11;102246.31;5131451;27;20096;-36
2021/12/21 02:48:55;;;;;;;0.20;0.20;;;;;;;19.59;41.53;102238.22;5135902;27;20048;-37
2021/12/21 02:51:22;;;;;;;0.20;0.20;;;;;;;19.59;41.44;102243.75;5128988;27;20055;-37
2021/12/21 02:53:48;;;;;;;0.20;0.20;;;;;;;19.59;41.51;102246.50;5115667;27;20446;-37
2021/12/21 02:56:14;;;;;;;0.20;0.20;;;;;;;19.60;41.16;102247.34;5111571;27;20039;-36
2021/12/21 02:58:40;;;;;;;0.20;0.20;;;;;;;19.59;41.22;102248.44;5111720;28;20039;-36
2021/12/21 03:01:07;;;;;;;0.20;0.20;;;;;;;19.59;41.30;102246.50;5127979;27;20039;-36
2021/12/21 03:03:33;;;;;;;0.20;0.20;;;;;;;19.58;41.40;102241.25;5133024;27;20103;-35
2021/12/21 03:06:01;;;;;;;0.20;0.20;;;;;;;19.59;41.10;102242.91;5133457;27;20043;-35
2021/12/21 03:08:38;;;;;;;0.20;0.20;;;;;;;19.58;41.19;102238.50;5123843;27;20043;-35
2021/12/21 03:11:35;;;;;;;0.20;0.20;;;;;;;19.59;41.35;102245.69;5130763;27;20041;-35
2021/12/21 03:14:03;;;;;;;0.20;0.20;;;;;;;19.58;41.43;102244.00;5115218;28;20042;-36
2021/12/21 03:16:29;;;;;;;;;;;;;;;19.56;41.24;102241.50;5130806;27;20371;-36
2021/12/21 03:18:56;;;;;;;0.20;0.20;;;;;;;19.55;41.21;102243.41;5137929;27;19926;-35
2021/12/21 03:21:22;;;;;;;0.20;0.20;;;;;;;19.55;41.30;102246.19;5131770;27;20064;-35
2021/12/21 03:23:48;;;;;;;0.20;0.20;;;;;;;19.57;41.41;102245.09;5130107;27;20031;-35
2021/12/21 03:26:13;;;;;;;0.20;0.20;;;;;;;19.55;41.25;102235.13;5131611;27;20474;-35
2021/12/21 03:28:39;;;;;;;0.20;0.20;;;;;;;19.57;41.21;102239.59;5114526;28;20039;-35
2021/12/21 03:31:06;;;;;;;0.20;0.20;;;;;;;19.57;41.48;102245.09;5132889;27;20035;-36
2021/12/21 03:33:33;;;;;;;0.20;0.20;;;;;;;19.57;41.22;102253.41;5109825;28;20041;-38
2021/12/21 03:36:00;;;;;;;0.20;0.20;;;;;;;19.56;41.47;102252.56;5131681;27;20046;-34
2021/12/21 03:38:27;;;;;;;0.20;0.20;;;;;;;19.56;41.24;102244.28;5131619;27;20053;-36
2021/12/21 03:40:54;;;;;;;0.20;0.20;;;;;;;19.55;41.33;102242.56;5129746;27;20107;-35
2021/12/21 03:43:20;;;;;;;0.20;0.20;;;;;;;19.55;41.10;102239.81;5129333;27;20473;-35
2021/12/21 03:45:55;;;;;;;0.20;0.20;;;;;;;19.55;41.19;102240.66;5131579;27;20051;-39
2021/12/21 03:48:21;;;;;;;0.20;0.20;;;;;;;19.55;41.10;102237.06;5130261;27;20035;-35
2021/12/21 03:50:47;;;;;;;0.20;0.20;;;;;;;19.55;41.31;102237.88;5112367;27;20039;-36
2021/12/21 03:53:12;;;;;;;0.20;0.20;;;;;;;19.55;41.08;102245.34;5130947;27;20187;-36
2021/12/21 03:55:38;;;;;;;0.20;0.20;;;;;;;19.55;41.33;102239.81;5144648;27;20088;-35
2021/12/21 03:58:03;;;;;;;0.20;0.20;;;;;;;19.54;41.28;102244.50;5128722;27;20043;-35
2021/12/21 04:00:29;;;;;;;0.20;0.20;;;;;;;19.54;41.37;102236.22;5130530;27;20386;-36
2021/12/21 04:02:55;;;;;;;0.20;0.20;;;;;;;19.54;41.45;102225.16;5143233;27;20070;-35
2021/12/21 04:05:21;;;;;;;0.20;0.20;;;;;;;19.54;41.20;102227.09;5130743;27;20489;-35
2021/12/21 04:07:47;;;;;;;0.20;0.20;;;;;;;19.53;41.24;102220.75;5132200;27;20114;-35
2021/12/21 04:10:12;;;;;;;0.20;0.20;;;;;;;19.54;41.39;102222.41;5125644;27;20508;-37
2021/12/21 04:12:38;;;;;;;0.20;0.20;;;;;;;19.54;41.18;102227.09;5130175;27;20075;-35
2021/12/21 04:15:06;;;;;;;0.20;0.20;;;;;;;19.54;41.23;102222.41;5125973;27;20069;-36
2021/12/21 04:17:32;;;;;;;0.20;0.20;;;;;;;19.53;41.04;102217.97;5131631;27;20035;-35
2021/12/21 04:19:58;;;;;;;0.10;0.10;;;;;;;19.52;41.19;102218.25;5139235;27;20049;-35
2021/12/21 04:22:24;;;;;;;0.20;0.20;;;;;;;19.53;41.18;102220.75;5129356;27;20115;-35
2021/12/21 04:24:50;;;;;;;0.20;0.20;;;;;;;19.53;41.07;102223.50;5129119;27;20047;-36
2021/12/21 04:27:16;;;;;;;0.20;0.20;;;;;;;19.53;41.01;102226.25;5128123;27;20421;-34
2021/12/21 04:29:42;;;;;;;0.20;0.20;;;;;;;19.53;41.05;102222.66;5137261;27;20051;-35
2021/12/21 04:32:08;;;;;;;0.20;0.20;;;;;;;19.52;41.43;102221.84;5131208;27;20124;-35
2021/12/21 04:34:34;;;;;;;0.20;0.20;;;;;;;19.53;41.37;102215.22;5111074;28;20543;-36
2021/12/21 04:37:00;;;;;;;0.20;0.20;;;;;;;19.52;41.41;102213.53;5115685;27;20553;-35
2021/12/21 04:39:37;;;;;;;0.20;0.20;;;;;;;19.52;41.22;102216.31;5136537;27;20043;-35
2021/12/21 04:42:03;;;;;;;0.20;0.20;;;;;;;19.53;41.23;102220.75;5128217;27;20049;-35
2021/12/21 04:44:30;;;;;;;0.20;0.20;;;;;;;19.53;41.10;102208.84;5123751;27;20169;-35
2021/12/21 04:46:56;;;;;;;0.20;0.20;;;;;;;19.51;41.39;102213.78;5116625;28;20053;-39
2021/12/21 04:49:21;;;;;;;0.20;0.20;;;;;;;19.52;41.43;102219.06;5132195;27;20047;-35
2021/12/21 04:51:47;;;;;;;0.17;0.17;;;;;;;19.52;41.29;102218.25;5132597;27;20130;-36
2021/12/21 04:54:13;;;;;;;0.20;0.20;;;;;;;19.52;41.07;102212.72;5128033;27;20035;-37
2021/12/21 04:56:38;;;;;;;0.20;0.20;;;;;;;19.52;41.17;102204.41;5128434;27;20374;-38
2021/12/21 04:59:04;;;;;;;0.20;0.20;;;;;;;19.51;41.28;102211.00;5133476;27;20370;-36
2021/12/21 05:01:30;;;;;;;0.20;0.20;;;;;;;19.51;41.42;102211.84;5136606;27;20039;-35
2021/12/21 05:03:56;;;;;;;0.20;0.20;;;;;;;19.52;41.06;102218.25;5132706;27;20390;-36
2021/12/21 05:06:22;;;;;;;0.20;0.20;;;;;;;19.50;41.45;102210.19;5132230;27;20043;-35
2021/12/21 05:09:03;;;;;;;0.20;0.20;;;;;;;19.51;41.01;102211.84;5134556;27;20120;-37
2021/12/21 05:11:34;;;;;;;0.20;0.20;;;;;;;19.50;41.01;102210.19;5122450;27;20065;-36
2021/12/21 05:14:00;;;;;;;0.20;0.20;;;;;;;19.50;41.15;102212.94;5130591;27;20413;-35
2021/12/21 05:16:25;;;;;;;0.20;0.20;;;;;;;19.50;41.15;102209.34;5129442;28;20486;-36
2021/12/21 05:18:51;;;;;;;0.20;0.20;;;;;;;19.49;41.09;102214.03;5136968;27;20047;-35
2021/12/21 05:21:16;;;;;;;0.20;0.20;;;;;;;19.50;41.41;102212.94;5129319;27;20348;-35
2021/12/21 05:23:42;;;;;;;0.20;0.20;;;;;;;19.49;41.35;102214.03;5132769;27;20042;-36
2021/12/21 05:26:08;;;;;;;0.20;0.20;;;;;;;19.49;41.17;102218.72;5138357;27;20043;-35
2021/12/21 05:28:34;;;;;;;0.20;0.20;;;;;;;19.50;41.34;102220.41;5132217;27;20401;-35
2021/12/21 05:30:59;;;;;;;0.20;0.20;;;;;;;19.49;41.14;102219.56;5136133;27;20185;-36
2021/12/21 05:33:27;;;;;;;0.20;0.20;;;;;;;19.50;41.25;102220.41;5134718;27;20040;-36
2021/12/21 05:35:53;;;;;;;0.20;0.20;;;;;;;19.50;41.08;102214.88;5130459;27;20047;-36
2021/12/21 05:38:28;;;;;;;0.20;0.20;;;;;;;19.49;41.31;102215.97;5130652;27;20054;-36
2021/12/21 05:40:54;;;;;;;0.20;0.20;;;;;;;19.49;41.37;102216.81;5113845;28;20049;-35
2021/12/21 05:43:21;;;;;;;0.20;0.20;;;;;;;19.49;41.11;102218.72;5124378;27;20553;-35
2021/12/21 05:45:46;;;;;;;0.20;0.20;;;;;;;19.48;41.01;102223.44;5129090;27;20043;-35
2021/12/21 05:48:12;;;;;;;0.20;0.20;;;;;;;19.47;40.90;102216.22;5129416;27;20043;-35
2021/12/21 05:50:38;;;;;;;0.20;0.20;;;;;;;19.49;41.08;102216.81;5125585;27;20070;-35
2021/12/21 05:53:04;;;;;;;0.20;0.20;;;;;;;19.49;41.18;102213.22;5125871;27;20036;-36
2021/12/21 05:55:30;;;;;;;0.20;0.20;;;;;;;19.49;41.09;102213.22;5132110;27;20046;-35
2021/12/21 05:57:56;;;;;;;0.20;0.20;;;;;;;19.49;40.94;102227.84;5114815;27;20046;-36
2021/12/21 06:00:24;;;;;;;0.20;0.20;;;;;;;19.48;41.27;102219.81;5125146;27;20049;-36
2021/12/21 06:02:50;;;;;;;0.20;0.20;;;;;;;19.48;41.51;102226.19;5114006;27;20401;-35
2021/12/21 06:05:16;;;;;;;0.20;0.20;;;;;;;19.48;41.10;102236.41;5129653;27;20035;-36
2021/12/21 06:07:42;;;;;;;0.20;0.20;;;;;;;19.48;40.99;102230.88;5111292;27;20093;-37
2021/12/21 06:10:13;;;;;;;0.20;0.20;;;;;;;19.48;41.13;102236.41;5134930;27;20083;-37
2021/12/21 06:13:00;;;;;;;0.10;0.10;;;;;;;19.47;41.16;102235.56;5119825;28;20048;-37
2021/12/21 06:15:39;;;;;;;0.15;0.15;;;;;;;19.48;40.94;102228.94;5116405;28;20047;-37
2021/12/21 06:26:22;;;;;;;0.20;0.20;;;;;;;19.46;40.93;102236.63;5117566;27;20047;-37
2021/12/21 06:28:48;;;;;;;0.20;0.20;;;;;;;19.46;41.03;102227.50;5130839;27;20115;-40
2021/12/21 06:31:14;;;;;;;0.15;0.15;;;;;;;19.49;40.63;102238.06;5128111;27;20051;-39
2021/12/21 06:33:40;;;;;;;0.20;0.20;;;;;;;19.51;40.75;102233.13;5134675;27;20047;-39
2021/12/21 06:36:07;;;;;;;0.20;0.20;;;;;;;19.49;40.91;102236.13;5122248;27;20458;-37
2021/12/21 06:38:33;;;;;;;0.20;0.20;;;;;;;19.47;40.94;102230.03;5104127;27;20082;-37
2021/12/21 06:40:59;;;;;;;0.20;0.20;;;;;;;19.48;41.09;102231.72;5122457;27;20040;-39
2021/12/21 06:43:25;;;;;;;0.13;0.13;;;;;;;19.48;41.10;102234.47;5105115;27;20055;-38
2021/12/21 06:45:59;;;;;;;0.20;0.20;;;;;;;19.48;41.00;102230.88;5128955;27;20156;-37
2021/12/21 06:51:19;;;;;;;0.20;0.20;;;;;;;19.47;41.24;102234.72;5118643;27;20047;-38
2021/12/21 06:53:47;;;;;;;0.20;0.20;;;;;;;19.47;41.03;102238.34;5128371;27;20431;-38
2021/12/21 06:56:13;;;;;;;0.20;0.20;;;;;;;19.47;40.97;102246.63;5106463;27;20526;-37
2021/12/21 06:58:39;;;;;;;0.20;0.20;;;;;;;19.47;40.83;102238.34;5096896;27;20058;-37
2021/12/21 07:01:06;;;;;;;0.20;0.20;;;;;;;19.47;41.07;102234.72;5118542;27;20540;-36
2021/12/21 07:03:36;;;;;;;0.20;0.20;;;;;;;19.47;40.99;102243.84;5115543;27;20441;-37
2021/12/21 07:06:05;;;;;;;0.20;0.20;;;;;;;19.46;41.16;102236.63;5101220;27;20093;-34
2021/12/21 07:08:33;;;;;;;;;;;;;;;19.46;41.13;102242.16;5098109;28;20059;-38
2021/12/21 07:11:13;;;;;;;0.20;0.20;;;;;;;19.48;40.05;102239.16;5101523;27;19927;-36
2021/12/21 07:19:10;;;;;;;0.20;0.20;;;;;;;19.50;40.57;102239.75;5097624;27;20051;-36
2021/12/21 07:21:37;;;;;;;0.20;0.20;;;;;;;19.50;40.93;102243.34;5117076;27;20119;-36
2021/12/21 07:24:03;;;;;;;0.20;0.20;;;;;;;19.50;40.90;102248.03;5096193;28;20039;-36
2021/12/21 07:26:28;;;;;;;0.20;0.20;;;;;;;19.51;40.54;102244.16;5122297;27;20368;-38
2021/12/21 07:28:54;;;;;;;0.20;0.20;;;;;;;19.52;40.83;102248.63;5115694;27;20047;-36
2021/12/21 07:31:20;;;;;;;0.20;0.20;;;;;;;19.52;40.51;102240.34;5099125;27;20055;-38
2021/12/21 07:33:46;;;;;;;0.20;0.20;;;;;;;19.52;40.68;102245.88;5116207;27;20067;-35
2021/12/21 07:36:11;;;;;;;0.20;0.20;;;;;;;19.52;40.49;102234.81;5091911;27;20581;-38
2021/12/21 07:38:37;;;;;;;0.20;0.20;;;;;;;19.52;40.56;102232.88;5112229;27;20058;-37
2021/12/21 07:41:03;;;;;;;0.20;0.20;;;;;;;19.53;40.41;102239.25;5116980;27;20051;-41
2021/12/21 07:43:29;;;;;;;0.20;0.20;;;;;;;19.53;40.63;102247.53;5114709;28;20050;-39
2021/12/21 07:45:55;;;;;;;0.20;0.20;;;;;;;19.54;40.65;102244.50;5097723;27;20043;-40
2021/12/21 07:48:21;;;;;;;0.20;0.20;;;;;;;19.55;40.91;102239.81;5115844;28;20120;-44
2021/12/21 07:50:48;;;;;;;0.20;0.20;;;;;;;19.55;40.76;102250.88;5112758;27;20451;-41
2021/12/21 07:53:14;;;;;;;0.20;0.20;;;;;;;19.57;40.53;102247.88;5106830;27;20178;-39
2021/12/21 07:55:40;;;;;;;0.20;0.20;;;;;;;19.58;40.56;102249.53;5094112;28;20047;-41
2021/12/21 07:58:06;;;;;;;0.20;0.20;;;;;;;19.58;40.30;102247.63;5094819;27;20459;-42
2021/12/21 08:00:31;;;;;;;0.20;0.20;;;;;;;19.60;40.45;102250.94;5094416;27;20043;-39
2021/12/21 08:02:57;;;;;;;0.20;0.20;;;;;;;19.59;40.49;102251.22;5111353;27;20047;-43
2021/12/21 08:05:24;;;;;;;0.20;0.20;;;;;;;19.61;40.57;102260.13;5109521;27;20485;-41
2021/12/21 08:07:55;;;;;;;0.20;0.20;;;;;;;19.61;40.43;102258.22;5116765;27;20071;-38
2021/12/21 08:10:41;;;;;;;0.20;0.20;;;;;;;19.62;40.65;102253.50;5110710;27;20057;-42
2021/12/21 08:13:07;;;;;;;0.20;0.20;;;;;;;19.63;40.65;102257.94;5092659;27;20043;-39
2021/12/21 08:15:32;;;;;;;0.20;0.20;;;;;;;19.63;40.49;102264.31;5116634;27;20505;-38
2021/12/21 08:17:58;;;;;;;0.20;0.20;;;;;;;19.63;40.40;102269.81;5118771;27;20046;-38
2021/12/21 08:20:26;;;;;;;0.20;0.20;;;;;;;19.64;40.40;102265.13;5113614;27;20039;-44
2021/12/21 08:22:52;;;;;;;0.20;0.20;;;;;;;19.64;40.53;102273.44;5105871;27;20152;-40
2021/12/21 08:25:18;;;;;;;0.20;0.20;;;;;;;19.64;40.58;102262.38;5112809;27;20397;-40
2021/12/21 08:27:44;;;;;;;0.20;0.20;;;;;;;19.64;40.66;102260.44;5112562;27;21162;-36
2021/12/21 08:30:10;;;;;;;0.20;0.20;;;;;;;19.64;40.66;102260.44;5091513;27;20050;-37
2021/12/21 08:32:36;;;;;;;0.20;0.20;;;;;;;19.64;40.58;102257.69;5114700;27;20501;-38
2021/12/21 08:35:02;;;;;;;0.20;0.20;;;;;;;19.64;40.25;102259.59;5115754;27;20047;-37
2021/12/21 08:37:28;;;;;;;0.20;0.20;;;;;;;19.64;40.37;102257.69;5090574;27;20044;-40
2021/12/21 08:39:54;;;;;;;0.20;0.20;;;;;;;19.64;40.49;102267.91;5110791;27;20049;-37
2021/12/21 08:42:19;;;;;;;0.40;0.40;;;;;;;19.65;40.36;102266.84;5109197;27;20062;-37
2021/12/21 08:44:46;;;;;;;0.20;0.20;;;;;;;19.63;37.38;102261.53;5116683;27;20047;-38
2021/12/21 08:47:13;;;;;;;0.20;0.20;;;;;;;19.72;38.97;102259.19;5108084;27;20138;-41
2021/12/21 08:49:43;;;;;;;0.10;0.10;;;;;;;19.83;37.33;102260.19;5114476;27;20042;-41
2021/12/21 08:52:08;;;;;;;0.20;0.20;;;;;;;19.83;38.23;102263.81;5109713;27;20052;-42
2021/12/21 08:54:37;;;;;;;0.20;0.20;;;;;;;19.82;35.51;102270.44;5101800;27;20505;-45
2021/12/21 08:57:03;;;;;;;0.10;0.10;;;;;;;19.79;35.18;102254.34;5086071;27;20039;-42
2021/12/21 08:59:29;;;;;;;0.20;0.20;;;;;;;19.74;34.19;102260.63;5119760;27;20065;-44
2021/12/21 09:01:55;;;;;;;0.20;0.20;;;;;;;19.79;35.39;102265.41;5107300;27;20575;-41
2021/12/21 09:04:22;;;;;;;0.20;0.20;;;;;;;19.82;34.79;102269.56;5104446;27;20389;-44
2021/12/21 09:06:47;;;;;;;0.20;0.20;;;;;;;19.90;35.05;102267.19;5106550;27;20046;-37
2021/12/21 09:09:13;;;;;;;0.20;0.20;;;;;;;19.99;36.16;102262.06;5104302;27;20283;-37
2021/12/21 09:11:39;;;;;;;0.20;0.20;;;;;;;20.02;36.33;102256.06;5108747;27;20047;-40
2021/12/21 09:14:05;;;;;;;0.20;0.20;;;;;;;20.01;36.24;102262.69;5106444;27;20059;-39
2021/12/21 09:16:32;;;;;;;0.20;0.20;;;;;;;20.01;36.89;102266.28;5090830;27;21130;-38
2021/12/21 09:18:57;;;;;;;0.20;0.20;;;;;;;20.02;36.64;102269.88;5107750;27;20080;-34
2021/12/21 09:21:23;;;;;;;0.10;0.10;;;;;;;20.01;36.72;102263.50;5108091;27;20054;-36
2021/12/21 09:23:49;;;;;;;0.20;0.20;;;;;;;20.02;37.02;102262.41;5101857;27;20058;-39
2021/12/21 09:26:14;;;;;;;0.10;0.10;;;;;;;20.01;37.28;102263.50;5110762;27;20101;-41
2021/12/21 09:28:40;;;;;;;0.20;0.20;;;;;;;20.02;37.01;102250.53;5105870;27;20471;-36
2021/12/21 09:31:06;;;;;;;0.17;0.17;;;;;;;20.02;37.39;102259.66;5100619;27;20051;-34
2021/12/21 09:33:31;;;;;;;0.10;0.10;;;;;;;20.03;37.47;102250.28;5104928;27;20214;-37
2021/12/21 09:35:57;;;;;;;0.20;0.20;;;;;;;20.03;37.53;102258.59;5103744;27;20092;-36
2021/12/21 09:38:23;;;;;;;0.20;0.20;;;;;;;20.04;37.71;102259.41;5101943;27;20058;-39
2021/12/21 09:40:49;;;;;;;0.20;0.20;;;;;;;20.06;37.75;102262.75;5107599;27;20047;-41
2021/12/21 09:43:14;;;;;;;0.20;0.20;;;;;;;20.07;37.35;102256.13;5107728;27;20156;-38
2021/12/21 09:45:40;;;;;;;0.13;0.13;;;;;;;20.07;37.54;102252.53;5114386;27;20167;-37
2021/12/21 09:48:06;;;;;;;0.20;0.20;;;;;;;20.07;37.41;102256.13;5083929;27;20054;-40
2021/12/21 09:50:36;;;;;;;0.20;0.20;;;;;;;20.07;37.58;102258.88;5087271;27;20078;-37
2021/12/21 09:53:02;;;;;;;0.20;0.20;;;;;;;20.08;37.57;102256.94;5110445;27;20376;-41
2021/12/21 09:55:29;;;;;;;0.10;0.10;;;;;;;20.09;37.98;102262.25;5111028;27;20722;-37
2021/12/21 09:57:55;;;;;;;0.20;0.20;;;;;;;20.10;37.98;102261.16;5094058;28;20039;-37
2021/12/21 10:00:25;;;;;;;0.20;0.20;;;;;;;20.09;37.66;102265.00;5117085;27;20404;-39
2021/12/21 10:02:52;;;;;;;0.20;0.20;;;;;;;20.10;37.60;102263.91;5106728;27;20166;-37
2021/12/21 10:05:20;;;;;;;0.10;0.10;;;;;;;20.11;37.72;102253.69;5092472;27;20046;-42
2021/12/21 10:08:05;;;;;;;0.20;0.20;;;;;;;20.11;37.58;102257.28;5086759;27;20058;-39
2021/12/21 10:10:33;;;;;;;0.20;0.20;;;;;;;20.12;37.72;102258.13;5081793;28;20040;-37
2021/12/21 10:13:06;;;;;;;;;;;;;;;20.12;37.57;102258.13;5102007;27;21955;-38
2021/12/21 10:15:37;;;;;;;0.20;0.20;;;;;;;20.13;37.82;102254.28;5105441;27;19927;-38
2021/12/21 10:18:03;;;;;;;0.20;0.20;;;;;;;20.12;37.95;102258.97;5096490;27;20466;-39
2021/12/21 10:20:41;;;;;;;0.20;0.20;;;;;;;20.13;38.00;102252.34;5090865;27;20461;-39
2021/12/21 10:23:27;;;;;;;0.20;0.20;;;;;;;20.12;37.98;102250.69;5108784;27;20047;-40
2021/12/21 10:26:03;;;;;;;0.20;0.20;;;;;;;20.14;38.00;102247.66;5095511;27;20050;-42
2021/12/21 10:28:39;;;;;;;0.20;0.20;;;;;;;20.12;37.96;102247.06;5096211;27;20046;-37
2021/12/21 10:31:08;;;;;;;0.20;0.20;;;;;;;20.13;37.80;102243.22;5079294;27;20053;-38
2021/12/21 10:33:35;;;;;;;0.20;0.20;;;;;;;20.12;38.13;102241.53;5088935;27;20118;-42
2021/12/21 10:36:03;;;;;;;0.20;0.20;;;;;;;20.12;37.97;102245.16;5101279;27;20065;-40
2021/12/21 10:38:43;;;;;;;0.20;0.20;;;;;;;20.11;37.89;102239.84;5089282;28;20271;-37
2021/12/21 10:41:12;;;;;;;0.20;0.20;;;;;;;20.13;37.17;102243.22;5093685;27;20055;-35
2021/12/21 10:43:38;;;;;;;0.17;0.17;;;;;;;20.15;37.19;102235.50;5090759;27;20093;-37
2021/12/21 10:46:03;;;;;;;0.20;0.20;;;;;;;20.14;37.17;102236.59;5113994;27;21316;-36
2021/12/21 10:48:30;;;;;;;0.20;0.20;;;;;;;20.13;37.50;102233.00;5111549;27;20806;-37
2021/12/21 10:50:56;;;;;;;0.20;0.20;;;;;;;20.12;37.65;102234.09;5097880;27;20085;-41
2021/12/21 10:53:24;;;;;;;0.20;0.20;;;;;;;20.13;37.79;102235.75;5104318;27;20160;-39
2021/12/21 10:56:01;;;;;;;0.20;0.20;;;;;;;20.13;38.03;102226.63;5116262;27;20105;-42
2021/12/21 10:58:29;;;;;;;0.20;0.20;;;;;;;20.14;37.70;102217.22;5095587;27;20058;-38
2021/12/21 11:00:59;;;;;;;0.20;0.20;;;;;;;20.14;37.72;102220.00;5100794;28;20043;-38
2021/12/21 11:03:33;;;;;;;0.20;0.20;;;;;;;20.14;37.79;102220.81;5116976;27;20289;-40
2021/12/21 11:06:18;;;;;;;0.10;0.10;;;;;;;20.14;37.59;102225.53;5079868;28;20146;-38
2021/12/21 11:08:48;;;;;;;0.20;0.20;;;;;;;20.14;38.10;102215.28;5088175;28;20190;-36
2021/12/21 11:11:33;;;;;;;0.10;0.10;;;;;;;20.15;37.86;102207.84;5108607;27;20069;-39
2021/12/21 11:14:08;;;;;;;0.20;0.20;;;;;;;20.16;38.26;102201.19;5120412;27;20035;-40
2021/12/21 11:16:50;;;;;;;0.20;0.20;;;;;;;20.16;37.75;102203.97;5093463;28;20053;-41
2021/12/21 11:19:18;;;;;;;0.20;0.20;;;;;;;20.16;38.36;102201.19;5119914;27;20475;-44
2021/12/21 11:21:45;;;;;;;0.20;0.20;;;;;;;20.16;37.96;102202.03;5104578;27;20043;-42
2021/12/21 11:24:13;;;;;;;0.20;0.20;;;;;;;20.17;37.95;102194.59;5106689;27;20181;-39
2021/12/21 11:26:42;;;;;;;0.10;0.10;;;;;;;20.17;38.33;102189.06;5087054;28;20055;-40
2021/12/21 11:29:12;;;;;;;0.20;0.20;;;;;;;20.17;38.03;102189.91;5105692;27;20047;-37
2021/12/21 11:31:40;;;;;;;0.10;0.10;;;;;;;20.19;38.01;102192.41;5114746;27;20047;-42
2021/12/21 11:34:14;;;;;;;0.20;0.20;;;;;;;20.18;38.05;102185.19;5117682;27;20047;-42
2021/12/21 11:39:31;;;;;;;0.20;0.20;;;;;;;20.18;37.94;102177.72;5065585;27;20481;-39
2021/12/21 11:41:58;;;;;;;0.20;0.20;;;;;;;20.19;38.04;102179.41;5110501;27;20072;-38
2021/12/21 11:44:35;;;;;;;0.20;0.20;;;;;;;20.20;38.04;102177.47;5084640;27;20057;-42
2021/12/21 11:47:01;;;;;;;0.20;0.20;;;;;;;20.19;38.21;102173.03;5106273;27;20099;-39
2021/12/21 11:49:45;;;;;;;0.20;0.20;;;;;;;20.18;38.10;102165.84;5089712;27;21410;-40
2021/12/21 11:52:15;;;;;;;0.20;0.20;;;;;;;20.19;38.27;102161.97;5094637;27;20095;-36
2021/12/21 11:54:58;;;;;;;0.20;0.20;;;;;;;20.19;38.20;102160.03;5090168;28;20129;-36
2021/12/21 11:57:46;;;;;;;0.20;0.20;;;;;;;20.18;38.07;102155.59;5090212;27;20462;-37
2021/12/21 12:00:19;;;;;;;0.10;0.10;;;;;;;20.18;38.26;102158.38;5091210;28;20059;-41